Terminal Aerodrome Forecast
Issued by NWS Paducah, KY

Home | Current Version | Previous Version | Text Only | Print | Product List | Glossary Off
Versions: 1 2 3 4 5 6 7 8 9 10 11 12

000
FTUS43 KPAH 170500
TAFPAH
TAF
KPAH 170520Z 1706/1806 17004KT P6SM FEW250
     FM171500 18008KT P6SM SCT040
     FM180000 17003KT P6SM BKN050=

USA.gov is the U.S. government's official web portal to all federal, state and local government web resources and services.